createdAt,value
2023-04-11T00:00:35.387Z,50.30
2023-04-11T00:03:01.970Z,50.38
2023-04-11T00:05:31.173Z,50.07
2023-04-11T00:07:57.719Z,50.42
2023-04-11T00:10:24.425Z,50.53
2023-04-11T00:12:50.906Z,50.93
2023-04-11T00:15:17.461Z,50.57
2023-04-11T00:17:45.741Z,50.74
2023-04-11T00:20:12.974Z,50.94
2023-04-11T00:22:39.681Z,51.34
2023-04-11T00:25:07.129Z,51.18
2023-04-11T00:27:33.592Z,51.56
2023-04-11T00:30:00.749Z,51.61
2023-04-11T00:32:27.813Z,51.74
2023-04-11T00:34:55.257Z,52.23
2023-04-11T00:37:22.124Z,52.32
2023-04-11T00:39:52.981Z,52.41
2023-04-11T00:42:19.848Z,52.64
2023-04-11T00:44:46.731Z,52.48
2023-04-11T00:47:13.692Z,53.34
2023-04-11T00:49:41.150Z,53.62
2023-04-11T00:52:08.156Z,52.96
2023-04-11T00:54:35.207Z,53.87
2023-04-11T00:57:03.223Z,53.67
2023-04-11T00:59:31.901Z,53.51
2023-04-11T01:01:59.183Z,54.35
2023-04-11T01:04:26.323Z,54.09
2023-04-11T01:06:59.858Z,54.96
2023-04-11T01:09:28.614Z,55.42
2023-04-11T01:11:56.277Z,55.52
2023-04-11T01:14:25.437Z,56.11
2023-04-11T01:16:52.521Z,56.30
2023-04-11T01:19:20.754Z,56.54
2023-04-11T01:21:49.662Z,56.43
2023-04-11T01:24:16.304Z,56.85
2023-04-11T01:26:42.888Z,56.83
2023-04-11T01:29:09.836Z,56.95
2023-04-11T01:31:36.314Z,57.24
2023-04-11T01:34:04.372Z,57.55
2023-04-11T01:36:32.187Z,57.53
2023-04-11T01:38:59.312Z,57.66
2023-04-11T01:41:29.310Z,58.05
2023-04-11T01:43:56.386Z,58.20
2023-04-11T01:46:24.570Z,58.30
2023-04-11T01:48:54.785Z,58.22
2023-04-11T01:51:21.549Z,58.12
2023-04-11T01:53:48.030Z,59.05
2023-04-11T01:56:14.784Z,59.52
2023-04-11T01:58:41.925Z,59.83
2023-04-11T02:01:08.750Z,60.35
2023-04-11T02:03:36.855Z,61.00
2023-04-11T02:06:04.267Z,60.89
2023-04-11T02:08:31.024Z,61.25
2023-04-11T02:10:57.433Z,61.42
2023-04-11T02:13:23.907Z,61.51
2023-04-11T02:15:50.485Z,61.42
2023-04-11T02:18:17.845Z,61.33
2023-04-11T02:20:44.545Z,61.67
2023-04-11T02:23:12.641Z,62.25
2023-04-11T02:25:39.244Z,62.54
2023-04-11T02:28:07.990Z,62.79
2023-04-11T02:30:34.672Z,62.93
2023-04-11T02:33:01.590Z,63.79
2023-04-11T02:35:28.097Z,64.24
2023-04-11T02:37:54.508Z,65.02
2023-04-11T02:40:20.912Z,65.49
2023-04-11T02:42:47.449Z,65.98
2023-04-11T02:45:16.437Z,66.55
2023-04-11T02:47:42.915Z,66.64
2023-04-11T02:50:10.826Z,67.10
2023-04-11T02:52:47.690Z,67.46
2023-04-11T02:55:15.220Z,67.94
2023-04-11T02:57:41.751Z,68.31
2023-04-11T03:00:11.992Z,68.49
2023-04-11T03:02:46.900Z,69.11
2023-04-11T03:05:15.525Z,69.92
2023-04-11T03:07:46.897Z,70.84
2023-04-11T03:10:13.351Z,71.81
2023-04-11T03:12:40.263Z,72.60
2023-04-11T03:15:09.080Z,74.25
2023-04-11T03:17:35.766Z,75.36
2023-04-11T03:20:07.092Z,76.27
2023-04-11T03:22:34.341Z,77.17
2023-04-11T03:25:01.033Z,77.97
2023-04-11T03:27:27.450Z,78.58
2023-04-11T03:29:58.833Z,78.81
2023-04-11T03:32:33.279Z,79.41
2023-04-11T03:35:01.802Z,79.76
2023-04-11T03:37:28.720Z,80.35
2023-04-11T03:39:55.132Z,81.00
2023-04-11T03:42:22.023Z,81.15
2023-04-11T03:44:53.492Z,82.39
2023-04-11T03:47:20.795Z,83.48
2023-04-11T03:49:48.398Z,85.45
2023-04-11T03:52:17.409Z,86.72
2023-04-11T03:54:47.807Z,87.49
2023-04-11T03:57:14.869Z,88.35
2023-04-11T03:59:41.458Z,89.16
2023-04-11T04:02:10.991Z,89.58
2023-04-11T04:04:48.553Z,89.43
2023-04-11T04:07:23.762Z,89.69
2023-04-11T04:09:53.908Z,89.88
2023-04-11T04:12:21.439Z,90.36
2023-04-11T04:15:04.115Z,90.07
2023-04-11T04:17:31.193Z,90.55
2023-04-11T04:19:58.714Z,90.40
2023-04-11T04:22:26.543Z,91.03
2023-04-11T04:24:57.948Z,90.95
2023-04-11T04:27:27.786Z,91.19
2023-04-11T04:30:03.775Z,91.42
2023-04-11T04:32:41.118Z,92.06
2023-04-11T04:35:11.765Z,91.60
2023-04-11T04:37:45.288Z,91.72
2023-04-11T04:40:20.547Z,92.21
2023-04-11T04:42:58.671Z,92.35
2023-04-11T04:45:36.067Z,92.44
2023-04-11T04:48:02.765Z,92.58
2023-04-11T04:50:29.174Z,92.77
2023-04-11T04:52:55.883Z,92.90
2023-04-11T04:55:22.275Z,92.05
2023-04-11T04:57:50.390Z,93.10
2023-04-11T05:00:17.224Z,92.86
2023-04-11T05:02:45.094Z,93.03
2023-04-11T05:05:13.902Z,93.14
2023-04-11T05:07:40.846Z,93.99
2023-04-11T05:10:07.913Z,93.33
2023-04-11T05:12:35.545Z,93.43
2023-04-11T05:15:11.316Z,93.33
2023-04-11T05:17:39.509Z,93.59
2023-04-11T05:20:08.870Z,93.97
2023-04-11T05:22:37.843Z,94.11
2023-04-11T05:25:05.420Z,94.00
2023-04-11T05:27:32.310Z,94.18
2023-04-11T05:30:01.004Z,93.96
2023-04-11T05:32:34.400Z,93.92
2023-04-11T05:35:01.156Z,94.27
2023-04-11T05:37:37.198Z,94.24
2023-04-11T05:40:03.926Z,94.42
2023-04-11T05:42:30.332Z,94.24
2023-04-11T05:44:58.988Z,93.31
2023-04-11T05:47:25.498Z,92.71
2023-04-11T05:49:51.914Z,93.37
2023-04-11T05:52:18.357Z,92.85
2023-04-11T05:54:44.767Z,92.80
2023-04-11T05:57:11.189Z,92.09
2023-04-11T05:59:37.746Z,91.83
2023-04-11T06:02:04.380Z,91.62
2023-04-11T06:04:31.060Z,89.88
2023-04-11T06:06:58.052Z,89.03
2023-04-11T06:09:24.553Z,88.83
2023-04-11T06:11:51.112Z,89.81
2023-04-11T06:14:17.576Z,89.58
2023-04-11T06:16:44.088Z,89.77
2023-04-11T06:19:10.613Z,88.50
2023-04-11T06:21:37.027Z,88.47
2023-04-11T06:24:09.230Z,88.71
2023-04-11T06:26:35.786Z,87.73
2023-04-11T06:29:06.261Z,87.67
2023-04-11T06:31:33.462Z,88.18
2023-04-11T06:34:03.343Z,88.53
2023-04-11T06:36:30.041Z,88.49
2023-04-11T06:38:56.658Z,87.35
2023-04-11T06:41:23.374Z,87.43
2023-04-11T06:43:49.814Z,86.61
2023-04-11T06:46:16.345Z,87.06
2023-04-11T06:48:42.844Z,87.35
2023-04-11T06:51:10.411Z,86.68
2023-04-11T06:53:36.925Z,86.21
2023-04-11T06:56:03.451Z,86.35
2023-04-11T06:58:30.061Z,86.25
2023-04-11T07:00:56.459Z,87.28
2023-04-11T07:03:25.200Z,85.98
2023-04-11T07:05:52.110Z,85.90
2023-04-11T07:08:18.604Z,87.33
2023-04-11T07:10:45.193Z,86.18
2023-04-11T07:13:11.603Z,86.45
2023-04-11T07:15:38.005Z,86.74
2023-04-11T07:18:04.526Z,87.55
2023-04-11T07:20:34.286Z,86.85
2023-04-11T07:23:00.851Z,86.40
2023-04-11T07:25:30.460Z,86.86
2023-04-11T07:27:57.096Z,86.64
2023-04-11T07:30:23.595Z,86.27
2023-04-11T07:32:50.042Z,86.27
2023-04-11T07:35:16.863Z,87.04
2023-04-11T07:37:43.504Z,85.96
2023-04-11T07:40:12.084Z,85.69
2023-04-11T07:42:38.533Z,83.88
2023-04-11T07:45:06.117Z,84.84
2023-04-11T07:47:32.576Z,84.38
2023-04-11T07:49:59.080Z,83.59
2023-04-11T07:52:25.986Z,83.33
2023-04-11T07:54:52.495Z,83.69
2023-04-11T07:57:18.927Z,82.68
2023-04-11T07:59:46.253Z,81.80
2023-04-11T08:02:13.031Z,82.79
2023-04-11T08:04:39.544Z,81.92
2023-04-11T08:07:06.789Z,80.10
2023-04-11T08:09:34.254Z,80.15
2023-04-11T08:12:01.682Z,81.50
2023-04-11T08:14:28.154Z,80.81
2023-04-11T08:16:54.597Z,79.77
2023-04-11T08:19:21.243Z,80.04
2023-04-11T08:21:47.728Z,79.24
2023-04-11T08:24:14.184Z,78.74
2023-04-11T08:26:40.738Z,79.07
2023-04-11T08:29:11.422Z,78.10
2023-04-11T08:31:42.487Z,77.44
2023-04-11T08:34:09.214Z,76.79
2023-04-11T08:36:35.896Z,77.44
2023-04-11T08:39:02.412Z,76.16
2023-04-11T08:41:30.646Z,76.29
2023-04-11T08:43:58.190Z,74.40
2023-04-11T08:46:25.080Z,74.61
2023-04-11T08:48:51.540Z,74.62
2023-04-11T08:51:23.826Z,74.59
2023-04-11T08:53:53.925Z,74.51
2023-04-11T08:56:20.452Z,74.25
2023-04-11T08:58:48.030Z,74.48
2023-04-11T09:01:34.094Z,74.73
2023-04-11T09:04:05.432Z,72.01
2023-04-11T09:06:33.649Z,72.40
2023-04-11T09:09:01.583Z,72.71
2023-04-11T09:11:28.081Z,72.28
2023-04-11T09:14:11.163Z,72.24
2023-04-11T09:16:52.887Z,72.30
2023-04-11T09:19:27.117Z,73.51
2023-04-11T09:21:54.873Z,72.26
2023-04-11T09:24:22.181Z,72.36
2023-04-11T09:26:48.923Z,71.41
2023-04-11T09:29:36.977Z,70.27
2023-04-11T09:32:03.613Z,70.72
2023-04-11T09:34:30.017Z,70.73
2023-04-11T09:36:56.522Z,70.52
2023-04-11T09:39:23.208Z,70.49
2023-04-11T09:41:49.789Z,70.10
2023-04-11T09:44:16.265Z,68.48
2023-04-11T09:47:09.612Z,68.53
2023-04-11T09:49:36.654Z,66.21
2023-04-11T09:52:03.709Z,67.56
2023-04-11T09:54:31.889Z,66.58
2023-04-11T09:56:59.028Z,67.08
2023-04-11T09:59:26.906Z,67.14
2023-04-11T10:01:53.391Z,65.53
2023-04-11T10:04:20.420Z,66.19
2023-04-11T10:07:12.476Z,65.52
2023-04-11T10:09:42.116Z,65.73
2023-04-11T10:12:08.978Z,64.05
2023-04-11T10:14:38.197Z,63.39
2023-04-11T10:17:31.715Z,60.92
2023-04-11T10:19:58.132Z,60.31
2023-04-11T10:22:43.405Z,60.87
2023-04-11T10:25:17.430Z,59.32
2023-04-11T10:28:00.614Z,59.52
2023-04-11T10:30:39.312Z,58.05
2023-04-11T10:33:14.262Z,58.15
2023-04-11T10:35:58.051Z,56.43
2023-04-11T10:38:36.936Z,56.23
2023-04-11T10:41:33.922Z,57.12
2023-04-11T10:44:21.037Z,57.72
2023-04-11T10:46:53.820Z,57.85
2023-04-11T10:49:34.959Z,58.84
2023-04-11T10:52:16.926Z,58.32
2023-04-11T10:54:44.747Z,58.63
2023-04-11T10:57:11.200Z,58.51
2023-04-11T10:59:37.560Z,57.75
2023-04-11T11:02:04.104Z,56.61
2023-04-11T11:04:35.987Z,56.91
2023-04-11T11:07:04.234Z,56.57
2023-04-11T11:09:31.495Z,55.76
2023-04-11T11:12:15.069Z,56.16
2023-04-11T11:14:43.763Z,55.91
2023-04-11T11:17:12.018Z,55.20
2023-04-11T11:19:43.827Z,55.59
2023-04-11T11:22:26.500Z,54.60
2023-04-11T11:24:53.316Z,55.00
2023-04-11T11:27:22.456Z,54.85
2023-04-11T11:29:49.004Z,54.43
2023-04-11T11:32:28.730Z,54.73
2023-04-11T11:34:57.331Z,55.07
2023-04-11T11:37:23.912Z,55.65
2023-04-11T11:39:51.238Z,56.22
2023-04-11T11:42:18.208Z,55.87
2023-04-11T11:44:44.610Z,55.01
2023-04-11T11:47:14.906Z,56.21
2023-04-11T11:49:50.217Z,56.06
2023-04-11T11:52:33.047Z,56.29
2023-04-11T11:55:00.382Z,55.60
2023-04-11T11:57:27.729Z,53.31
2023-04-11T12:00:00.257Z,52.52
2023-04-11T12:02:27.709Z,50.68
2023-04-11T12:05:00.080Z,50.30
2023-04-11T12:07:30.297Z,49.66
2023-04-11T12:10:01.578Z,50.66
2023-04-11T12:12:38.637Z,47.23
2023-04-11T12:15:16.846Z,50.20
2023-04-11T12:17:47.723Z,52.73
2023-04-11T12:20:15.729Z,57.21
2023-04-11T12:22:42.456Z,60.83
2023-04-11T12:25:10.305Z,63.92
2023-04-11T12:27:38.135Z,66.85
2023-04-11T12:30:05.263Z,67.74
2023-04-11T12:32:35.357Z,68.39
2023-04-11T12:35:03.450Z,66.21
2023-04-11T12:37:30.621Z,64.58
2023-04-11T12:39:57.022Z,61.83
2023-04-11T12:42:26.911Z,61.21
2023-04-11T12:44:54.265Z,61.63
2023-04-11T12:47:20.710Z,59.77
2023-04-11T12:49:47.130Z,59.89
2023-04-11T12:52:13.551Z,58.70
2023-04-11T12:54:39.987Z,58.80
2023-04-11T12:57:07.564Z,58.88
2023-04-11T12:59:34.098Z,55.44
2023-04-11T13:02:00.653Z,54.58
2023-04-11T13:04:27.404Z,54.75
2023-04-11T13:06:53.911Z,51.49
2023-04-11T13:09:20.879Z,52.15
2023-04-11T13:11:47.368Z,50.40
2023-04-11T13:14:13.764Z,50.52
2023-04-11T13:16:40.217Z,51.32
2023-04-11T13:19:06.692Z,50.88
2023-04-11T13:21:33.361Z,50.76
2023-04-11T13:23:59.750Z,50.51
2023-04-11T13:26:26.521Z,50.85
2023-04-11T13:28:52.947Z,50.90
2023-04-11T13:31:19.469Z,50.77
2023-04-11T13:33:47.879Z,51.14
2023-04-11T13:36:14.359Z,51.28
2023-04-11T13:38:41.172Z,51.31
2023-04-11T13:41:07.634Z,51.81
2023-04-11T13:43:34.123Z,49.52
2023-04-11T13:46:00.737Z,49.07
2023-04-11T13:48:27.202Z,47.97
2023-04-11T13:50:57.345Z,47.80
2023-04-11T13:53:24.265Z,47.16
2023-04-11T13:55:51.213Z,46.54
2023-04-11T13:58:18.219Z,46.55
2023-04-11T14:00:45.026Z,47.53
2023-04-11T14:03:11.911Z,45.89
2023-04-11T14:05:38.967Z,45.02
2023-04-11T14:08:06.226Z,44.75
2023-04-11T14:10:33.306Z,43.72
2023-04-11T14:13:00.968Z,42.35
2023-04-11T14:15:27.454Z,41.33
2023-04-11T14:17:54.060Z,40.70
2023-04-11T14:20:20.793Z,40.97
2023-04-11T14:22:47.291Z,40.21
2023-04-11T14:25:13.840Z,41.95
2023-04-11T14:27:41.430Z,42.60
2023-04-11T14:30:09.660Z,41.85
2023-04-11T14:32:36.309Z,43.02
2023-04-11T14:35:04.823Z,42.43
2023-04-11T14:37:34.741Z,42.07
2023-04-11T14:40:01.749Z,40.87
2023-04-11T14:42:28.186Z,40.89
2023-04-11T14:44:54.650Z,40.12
2023-04-11T14:47:21.240Z,40.04
2023-04-11T14:49:47.698Z,40.95
2023-04-11T14:52:14.228Z,41.21
2023-04-11T14:54:40.630Z,41.26
2023-04-11T14:57:07.031Z,42.05
2023-04-11T14:59:33.439Z,42.36
2023-04-11T15:02:00.008Z,42.84
2023-04-11T15:04:26.624Z,43.88
2023-04-11T15:06:53.167Z,43.45
2023-04-11T15:09:22.589Z,42.04
2023-04-11T15:11:48.978Z,40.24
2023-04-11T15:14:15.685Z,40.28
2023-04-11T15:16:42.152Z,40.22
2023-04-11T15:19:11.302Z,39.17
2023-04-11T15:21:38.360Z,39.40
2023-04-11T15:24:07.235Z,38.57
2023-04-11T15:26:34.112Z,37.95
2023-04-11T15:29:00.738Z,39.13
2023-04-11T15:31:27.350Z,38.47
2023-04-11T15:33:57.178Z,38.97
2023-04-11T15:36:24.072Z,39.03
2023-04-11T15:38:50.520Z,38.88
2023-04-11T15:41:17.222Z,38.98
2023-04-11T15:43:43.923Z,39.02
2023-04-11T15:46:10.342Z,39.33
2023-04-11T15:48:36.817Z,39.39
2023-04-11T15:51:10.751Z,39.73
2023-04-11T15:53:37.414Z,40.51
2023-04-11T15:56:06.040Z,40.39
2023-04-11T15:58:33.817Z,40.06
2023-04-11T16:01:01.615Z,40.05
2023-04-11T16:03:31.680Z,39.16
2023-04-11T16:05:58.958Z,39.49
2023-04-11T16:08:27.014Z,39.63
2023-04-11T16:10:54.361Z,39.52
2023-04-11T16:13:20.997Z,37.92
2023-04-11T16:15:47.397Z,38.05
2023-04-11T16:18:13.859Z,38.44
2023-04-11T16:20:40.374Z,38.87
2023-04-11T16:23:06.783Z,38.88
2023-04-11T16:25:33.164Z,39.13
2023-04-11T16:27:59.612Z,38.62
2023-04-11T16:30:27.752Z,38.17
2023-04-11T16:32:54.394Z,37.76
2023-04-11T16:35:20.986Z,38.14
2023-04-11T16:37:47.401Z,38.46
2023-04-11T16:40:13.853Z,39.09
2023-04-11T16:42:40.395Z,39.89
2023-04-11T16:45:07.755Z,39.68
2023-04-11T16:47:34.533Z,40.26
2023-04-11T16:50:01.077Z,41.23
2023-04-11T16:52:28.177Z,40.99
2023-04-11T16:54:54.592Z,41.74
2023-04-11T16:57:20.972Z,41.76
2023-04-11T16:59:47.354Z,42.94
2023-04-11T17:02:13.833Z,42.46
2023-04-11T17:04:40.359Z,42.85
2023-04-11T17:07:06.967Z,43.45
2023-04-11T17:09:33.360Z,44.26
2023-04-11T17:12:02.045Z,44.70
2023-04-11T17:14:28.721Z,45.04
2023-04-11T17:16:55.411Z,45.13
2023-04-11T17:19:23.145Z,45.83
2023-04-11T17:21:50.670Z,46.17
2023-04-11T17:24:17.038Z,46.41
2023-04-11T17:26:43.508Z,46.50
2023-04-11T17:29:10.927Z,46.67
2023-04-11T17:31:37.695Z,46.88
2023-04-11T17:34:04.397Z,47.34
2023-04-11T17:36:30.916Z,47.57
2023-04-11T17:38:57.357Z,47.80
2023-04-11T17:41:23.780Z,47.95
2023-04-11T17:43:50.172Z,48.25
2023-04-11T17:46:16.793Z,48.34
2023-04-11T17:48:43.345Z,48.46
2023-04-11T17:51:09.754Z,48.72
2023-04-11T17:53:36.139Z,48.80
2023-04-11T17:56:04.438Z,49.33
2023-04-11T17:58:31.604Z,49.57
2023-04-11T18:00:58.006Z,49.54
2023-04-11T18:03:26.294Z,50.01
2023-04-11T18:05:54.406Z,49.77
2023-04-11T18:08:26.504Z,50.52
2023-04-11T18:10:59.886Z,50.83
2023-04-11T18:13:27.334Z,51.13
2023-04-11T18:15:53.876Z,51.20
2023-04-11T18:18:20.345Z,51.42
2023-04-11T18:20:46.743Z,51.59
2023-04-11T18:23:13.176Z,52.14
2023-04-11T18:25:39.551Z,52.16
2023-04-11T18:28:06.239Z,52.36
2023-04-11T18:30:32.609Z,52.92
2023-04-11T18:32:59.094Z,53.03
2023-04-11T18:35:25.802Z,52.60
2023-04-11T18:37:53.324Z,53.44
2023-04-11T18:40:19.785Z,53.58
2023-04-11T18:42:50.353Z,54.32
2023-04-11T18:45:20.433Z,54.27
2023-04-11T18:47:47.109Z,54.78
2023-04-11T18:50:14.551Z,54.49
2023-04-11T18:52:41.715Z,54.80
2023-04-11T18:55:09.938Z,54.57
2023-04-11T18:57:37.970Z,54.95
2023-04-11T19:00:18.706Z,54.32
2023-04-11T19:02:46.825Z,54.35
2023-04-11T19:05:14.229Z,55.27
2023-04-11T19:07:42.096Z,55.17
2023-04-11T19:10:10.761Z,55.43
2023-04-11T19:12:37.888Z,56.03
2023-04-11T19:15:08.997Z,56.52
2023-04-11T19:17:36.881Z,56.07
2023-04-11T19:20:12.994Z,56.09
2023-04-11T19:22:40.911Z,56.53
2023-04-11T19:25:10.638Z,56.84
2023-04-11T19:27:40.093Z,57.09
2023-04-11T19:30:08.638Z,57.18
2023-04-11T19:32:38.424Z,57.39
2023-04-11T19:35:08.036Z,57.31
2023-04-11T19:37:35.071Z,57.06
2023-04-11T19:40:01.986Z,57.26
2023-04-11T19:42:32.886Z,57.00
2023-04-11T19:44:59.490Z,57.52
2023-04-11T19:47:25.960Z,57.59
2023-04-11T19:49:52.850Z,57.47
2023-04-11T19:52:19.367Z,57.40
2023-04-11T19:54:46.115Z,57.09
2023-04-11T19:57:12.492Z,58.19
2023-04-11T19:59:38.878Z,58.28
2023-04-11T20:02:06.009Z,58.28
2023-04-11T20:04:32.524Z,58.21
2023-04-11T20:07:00.761Z,58.80
2023-04-11T20:09:30.171Z,58.71
2023-04-11T20:11:56.804Z,58.97
2023-04-11T20:14:23.237Z,59.27
2023-04-11T20:16:49.670Z,59.19
2023-04-11T20:19:16.119Z,59.59
2023-04-11T20:21:42.502Z,59.05
2023-04-11T20:24:12.203Z,59.20
2023-04-11T20:26:38.594Z,59.12
2023-04-11T20:29:05.073Z,59.44
2023-04-11T20:31:31.470Z,59.55
2023-04-11T20:33:58.127Z,59.86
2023-04-11T20:36:25.346Z,59.47
2023-04-11T20:38:51.827Z,59.50
2023-04-11T20:41:19.570Z,59.54
2023-04-11T20:43:46.035Z,59.82
2023-04-11T20:46:13.587Z,60.10
2023-04-11T20:48:42.553Z,61.02
2023-04-11T20:51:09.697Z,61.00
2023-04-11T20:53:36.232Z,60.98
2023-04-11T20:56:03.025Z,61.35
2023-04-11T20:58:29.449Z,61.38
2023-04-11T21:00:57.226Z,60.77
2023-04-11T21:03:24.039Z,61.53
2023-04-11T21:05:50.487Z,61.02
2023-04-11T21:08:16.936Z,60.46
2023-04-11T21:10:43.297Z,60.66
2023-04-11T21:13:09.735Z,60.74
2023-04-11T21:15:36.129Z,60.48
2023-04-11T21:18:03.110Z,61.01
2023-04-11T21:20:30.862Z,60.98
2023-04-11T21:22:58.763Z,60.73
2023-04-11T21:25:25.205Z,60.71
2023-04-11T21:27:51.640Z,60.96
2023-04-11T21:30:18.282Z,61.23
2023-04-11T21:32:44.779Z,61.40
2023-04-11T21:35:12.387Z,61.90
2023-04-11T21:37:39.053Z,62.52
2023-04-11T21:40:06.336Z,62.68
2023-04-11T21:42:32.728Z,61.73
2023-04-11T21:44:59.183Z,63.15
2023-04-11T21:47:25.908Z,63.27
2023-04-11T21:49:52.341Z,62.70
2023-04-11T21:52:18.724Z,63.77
2023-04-11T21:54:45.203Z,63.86
2023-04-11T21:57:11.689Z,64.01
2023-04-11T21:59:39.185Z,62.86
2023-04-11T22:02:06.497Z,62.44
2023-04-11T22:04:39.186Z,62.26
2023-04-11T22:07:15.412Z,62.74
2023-04-11T22:09:46.424Z,63.48
2023-04-11T22:12:17.586Z,63.00
2023-04-11T22:14:45.118Z,63.11
2023-04-11T22:17:12.230Z,63.32
2023-04-11T22:19:42.097Z,62.61
2023-04-11T22:22:08.875Z,62.54
2023-04-11T22:24:38.174Z,62.56
2023-04-11T22:27:06.125Z,62.68
2023-04-11T22:29:34.234Z,63.03
2023-04-11T22:32:03.663Z,62.17
2023-04-11T22:34:30.142Z,61.97
2023-04-11T22:36:57.697Z,62.42
2023-04-11T22:39:25.412Z,62.33
2023-04-11T22:41:52.429Z,61.75
2023-04-11T22:44:19.273Z,62.13
2023-04-11T22:47:08.798Z,61.05
2023-04-11T22:49:41.959Z,61.59
2023-04-11T22:52:10.524Z,61.27
2023-04-11T22:54:38.468Z,61.60
2023-04-11T22:57:04.886Z,61.37
2023-04-11T22:59:31.547Z,61.46
2023-04-11T23:01:58.391Z,61.04
2023-04-11T23:04:24.989Z,61.84
2023-04-11T23:06:51.423Z,61.74
2023-04-11T23:09:18.250Z,61.53
2023-04-11T23:11:46.623Z,61.45
2023-04-11T23:14:15.263Z,61.43
2023-04-11T23:16:43.306Z,62.23
2023-04-11T23:19:10.357Z,62.14
2023-04-11T23:21:39.630Z,62.42
2023-04-11T23:24:09.916Z,62.32
2023-04-11T23:26:36.922Z,62.86
2023-04-11T23:29:03.541Z,62.82
2023-04-11T23:31:31.397Z,62.59
2023-04-11T23:33:58.191Z,62.92
2023-04-11T23:36:24.862Z,62.60
2023-04-11T23:38:51.710Z,63.23
2023-04-11T23:41:18.624Z,63.44
2023-04-11T23:43:45.084Z,64.20
2023-04-11T23:46:12.510Z,64.62
2023-04-11T23:48:38.987Z,64.02
2023-04-11T23:51:06.296Z,64.54
2023-04-11T23:53:32.687Z,64.24
2023-04-11T23:55:59.118Z,64.99
2023-04-11T23:58:25.539Z,65.46
